Facebook Twitter YouTube


Home > Racing Home >Top Performers > trot
 

TOP PERFORMERS IN 2016

Trotters

Click on a link below to see the top 50 Trotters in that category. Only North American racing statistics are shown, with all earnings expressed in US currency.

  All Ages Earnings Wins Record
  2-Year-Olds Earnings Wins Record
  3-Year-Olds Earnings Wins Record
  Aged Earnings Wins Record

2-year-old Trotters by Record - 2016

Click on a column heading to sort these 50 rows only. To see a report of the top horses using other categories, please select a link at the top of the page.

Horse Name Age Sex Gait Sts 1st 2nd 3rd Earnings Record Size
WALNER 2 H T 8 7 0 0 484,037 1:51.3 m
ARIANA G 2 M T 11 9 1 0 743,967 1:51.4 m
BILL'S MAN 2 H T 12 2 3 2 70,441 1:52.3 m
INTERNATIONAL MONI 2 H T 12 1 4 3 154,387 1:53.1 m
TREVISO 2 M T 11 5 2 1 155,569 1:53.1 m
DEVIOUS MAN 2 H T 12 7 1 1 308,233 1:53.2 m
ICE ATTRACTION 2 M T 9 3 2 1 104,350 1:53.3 m
SOUTHWIND COBRA 2 H T 13 2 3 3 96,296 1:53.3 m
CHEZATTER 2 M T 11 4 4 1 218,262 1:53.4 m
THATS ALL MONI 2 M T 11 5 3 2 226,773 1:54.1 m
CAVIART WONDER 2 M T 9 2 3 2 57,252 1:54.2 f
KING ON THE HILL 2 H T 10 2 3 0 89,775 1:54.2 m
RUBIO 2 H T 7 5 0 1 107,924 1:54.2 m
PRINCESS AURORA 2 M T 11 3 4 2 287,102 1:54.3 m
GIVEITGASANDGO 2 R T 12 8 1 1 272,640 1:54.4 f
MASS PRODUCTION 2 G T 9 5 1 1 217,668 1:54.4 s
HILLARMBRO 2 M T 10 3 3 1 101,359 1:54.4 m
TEMPLE RUINS 2 M T 13 3 2 3 224,505 1:54.4 m
VICTOR GIO IT 2 H T 6 1 1 0 84,247 1:54.4 m
WHAT THE HILL 2 H T 14 3 5 0 315,686 1:54.4 m
DON DREAM 2 G T 9 4 2 0 93,240 1:55.0 h
CAN'T I 2 M T 7 4 2 0 205,752 1:55.0 f
CHECKMATE TIME 2 M T 3 2 0 0 22,500 1:55.0 m
DOVER DAN 2 H T 11 4 0 2 122,899 1:55.0 m
FLY ON 2 H T 14 6 0 6 120,015 1:55.0 m
MAGIC PRESTO 2 M T 9 4 2 1 294,762 Q 1:55.0 m
OVERDRAFT VOLO 2 M T 10 3 3 2 147,594 1:55.0 m
SHAKE IT OFF LINDY 2 H T 9 2 1 2 53,976 1:55.0 m
SORTIE 2 G T 8 2 1 1 122,055 1:55.0 m
DANGLE THEN DEKE 2 M T 12 6 3 0 129,696 1:55.1 f
FINE TUNED LADY 2 M T 12 6 5 0 438,340 1:55.1 f
NEW JERSEY VIKING 2 H T 11 5 1 0 146,138 1:55.1 f
SNOWSTORM HANOVER 2 H T 14 6 3 1 340,149 1:55.1 f
SIGNAL HILL 2 G T 8 2 2 1 69,821 1:55.1 s
BARN BELLA 2 M T 9 6 0 0 201,811 1:55.2 f
EVELYN 2 M T 11 2 1 3 97,064 1:55.2 f
MUSCLES JARED 2 G T 11 5 2 0 150,856 1:55.2 f
TWO AM 2 G T 6 4 1 1 53,535 1:55.2 f
VODKA N LINDY 2 M T 3 3 0 0 13,300 1:55.2 s
EXPLOSIVE RIDGE 2 G T 9 3 2 1 35,306 1:55.2 m
GRANDMA'S MONI 2 M T 5 1 0 0 10,362 1:55.2 m
LONG TOM 2 H T 7 3 1 1 60,950 1:55.2 m
MAGIC VACATION 2 G T 6 1 2 0 40,500 1:55.3 f
SIANNA HANOVER 2 M T 11 3 1 1 107,124 1:55.3 f
CRANN TARA 2 M T 10 4 2 2 64,682 1:55.3 s
SEVEN AND SEVEN 2 H T 8 4 1 0 173,059 1:55.3 s
LINDY THE GREAT 2 H T 5 2 1 0 43,750 1:55.3 m
WHISKEY LINDY 2 G T 5 2 0 0 10,851 1:55.3 m
JAKE 2 H T 10 2 2 4 157,065 1:55.4 s
ON A SUNNY DAY 2 M T 6 4 1 0 140,613 1:55.4 s
QUADRANGLE 2 G T 5 1 1 1 10,182 1:55.4 s
WINTER SWEET FROST 2 M T 11 3 3 2 250,987 1:55.4 s
FEED YOUR HEAD 2 M T 15 3 2 5 92,763 1:55.4 m
ONDA SU 2 M T 12 3 1 1 58,683 1:55.4 m
Updated: 10/21/2019

Looking for even more information? Pathway has expanded reports on every harness racing participant in North America, as well as online industry leaders statistics updated daily. Set up your free USTA Account at myaccount.ustrotting.com which will give you access to Pathway and the expanded Statistics reporting area. For more information on Pathway, please visit pathway.ustrotting.com.

Comments or questions on these reports, please contact webmaster@ustrotting.com.